SBI5591 UNNT-UDYZ
Flight info
| Callsign | SBI5591 |
|---|---|
| Flight time | 4h 43m |
| Altitude | 34000 |
| Route | LUNIM B808 DAKIN N55 OGANU P574 NOGBU N996 PIKAN A80 GIPAR/N0456F340 DCT MATAL T916 SEVAN |
| Aircraft | A321/M-SDFGJ1IYRW/LB1 |
Departure
| Time | 2026-05-06 08:15 |
|---|---|
| Airport | Novosibirsk Tolmachevo Airport (UNNT) |
Arrival
| Time | 2026-05-06 12:58 |
|---|---|
| Airport | Zvartnots International Airport (UDYZ) |
| Time | Latitude | Longitude | Altitude | Speed | Heading |
|---|---|---|---|---|---|
| 2026-05-06 07:18 | 55.01045 | 82.67228 | 373 ft | 0 kts | 170° |
| 2026-05-06 08:06 | 55.01055 | 82.67225 | 373 ft | 4 kts | 165° |
| 2026-05-06 08:06 | 55.01079 | 82.67209 | 373 ft | 4 kts | 142° |
| 2026-05-06 08:06 | 55.01095 | 82.67176 | 373 ft | 4 kts | 106° |
| 2026-05-06 08:06 | 55.01097 | 82.67152 | 373 ft | 0 kts | 81° |
| 2026-05-06 08:09 | 55.01098 | 82.67167 | 373 ft | 3 kts | 81° |
| 2026-05-06 08:09 | 55.01103 | 82.67224 | 373 ft | 5 kts | 81° |
| 2026-05-06 08:09 | 55.01107 | 82.67283 | 373 ft | 5 kts | 87° |
| 2026-05-06 08:10 | 55.01108 | 82.67371 | 373 ft | 9 kts | 89° |
| 2026-05-06 08:10 | 55.01113 | 82.67438 | 373 ft | 5 kts | 71° |
| 2026-05-06 08:10 | 55.01138 | 82.67478 | 364 ft | 5 kts | 34° |
| 2026-05-06 08:10 | 55.01172 | 82.67514 | 373 ft | 7 kts | 31° |
| 2026-05-06 08:11 | 55.01241 | 82.67585 | 373 ft | 16 kts | 31° |
| 2026-05-06 08:11 | 55.01338 | 82.67687 | 373 ft | 16 kts | 31° |
| 2026-05-06 08:11 | 55.01407 | 82.67760 | 372 ft | 9 kts | 31° |
| 2026-05-06 08:11 | 55.01461 | 82.67791 | 371 ft | 8 kts | 0° |
| 2026-05-06 08:12 | 55.01477 | 82.67785 | 371 ft | 1 kts | 345° |
| 2026-05-06 08:12 | 55.01485 | 82.67769 | 371 ft | 3 kts | 300° |
| 2026-05-06 08:12 | 55.01485 | 82.67734 | 371 ft | 2 kts | 264° |
| 2026-05-06 08:12 | 55.01485 | 82.67733 | 371 ft | 0 kts | 264° |
| 2026-05-06 08:14 | 55.01484 | 82.67719 | 371 ft | 12 kts | 264° |
| 2026-05-06 08:14 | 55.01431 | 82.67139 | 374 ft | 82 kts | 261° |
| 2026-05-06 08:14 | 55.01312 | 82.65818 | 373 ft | 137 kts | 261° |
| 2026-05-06 08:15 | 55.01137 | 82.63916 | 381 ft | 178 kts | 261° |
| 2026-05-06 08:15 | 55.00937 | 82.61766 | 920 ft | 179 kts | 259° |
| 2026-05-06 08:15 | 55.00743 | 82.59637 | 1592 ft | 177 kts | 257° |
| 2026-05-06 08:15 | 55.00555 | 82.57538 | 2090 ft | 174 kts | 259° |
| 2026-05-06 08:16 | 55.00370 | 82.55463 | 2553 ft | 173 kts | 260° |
| 2026-05-06 08:16 | 55.00299 | 82.53414 | 2984 ft | 175 kts | 279° |
| 2026-05-06 08:16 | 55.00756 | 82.51426 | 3563 ft | 179 kts | 291° |
| 2026-05-06 08:16 | 55.01287 | 82.49361 | 3912 ft | 196 kts | 290° |
| 2026-05-06 08:17 | 55.01862 | 82.47101 | 4032 ft | 213 kts | 290° |
| 2026-05-06 08:17 | 55.02490 | 82.44626 | 4211 ft | 232 kts | 291° |
| 2026-05-06 08:17 | 55.03149 | 82.42046 | 4863 ft | 233 kts | 291° |
| 2026-05-06 08:17 | 55.03813 | 82.39456 | 5463 ft | 235 kts | 290° |
| 2026-05-06 08:18 | 55.04314 | 82.36732 | 5897 ft | 242 kts | 274° |
| 2026-05-06 08:18 | 55.04265 | 82.33761 | 6375 ft | 248 kts | 265° |
| 2026-05-06 08:18 | 55.04136 | 82.30749 | 6976 ft | 250 kts | 265° |
| 2026-05-06 08:18 | 55.04000 | 82.27723 | 7581 ft | 251 kts | 264° |
| 2026-05-06 08:19 | 55.03863 | 82.24728 | 8197 ft | 252 kts | 264° |
| 2026-05-06 08:19 | 55.03722 | 82.21671 | 8816 ft | 253 kts | 264° |
| 2026-05-06 08:19 | 55.03580 | 82.18605 | 9449 ft | 255 kts | 264° |
| 2026-05-06 08:19 | 55.03435 | 82.15516 | 10021 ft | 256 kts | 264° |
| 2026-05-06 08:20 | 55.03284 | 82.12332 | 10228 ft | 272 kts | 264° |
| 2026-05-06 08:20 | 55.03119 | 82.08935 | 10351 ft | 290 kts | 264° |
| 2026-05-06 08:20 | 55.02943 | 82.05326 | 10472 ft | 307 kts | 264° |
| 2026-05-06 08:20 | 55.02759 | 82.01525 | 10598 ft | 323 kts | 264° |
| 2026-05-06 08:21 | 55.02570 | 81.97561 | 10899 ft | 331 kts | 264° |
| 2026-05-06 08:21 | 55.02447 | 81.94842 | 11210 ft | 334 kts | 264° |
| 2026-05-06 08:21 | 55.02275 | 81.90792 | 11704 ft | 336 kts | 264° |
| 2026-05-06 08:21 | 55.02105 | 81.86718 | 12220 ft | 338 kts | 264° |
| 2026-05-06 08:22 | 55.01932 | 81.82613 | 12768 ft | 340 kts | 264° |
| 2026-05-06 08:22 | 55.01755 | 81.78488 | 13333 ft | 342 kts | 264° |
| 2026-05-06 08:22 | 55.01573 | 81.74341 | 13848 ft | 344 kts | 264° |
| 2026-05-06 08:22 | 55.01387 | 81.70178 | 14266 ft | 346 kts | 264° |
| 2026-05-06 08:23 | 55.01197 | 81.65984 | 14678 ft | 348 kts | 264° |
| 2026-05-06 08:23 | 55.01005 | 81.61774 | 15073 ft | 350 kts | 264° |
| 2026-05-06 08:23 | 55.00810 | 81.57533 | 15463 ft | 352 kts | 264° |
| 2026-05-06 08:23 | 55.00612 | 81.53272 | 15830 ft | 354 kts | 264° |
| 2026-05-06 08:24 | 55.00417 | 81.49043 | 16183 ft | 356 kts | 264° |
| 2026-05-06 08:24 | 55.00218 | 81.44731 | 16532 ft | 358 kts | 264° |
| 2026-05-06 08:24 | 55.00015 | 81.40394 | 16870 ft | 360 kts | 264° |
| 2026-05-06 08:24 | 54.99809 | 81.36033 | 17222 ft | 362 kts | 264° |
| 2026-05-06 08:25 | 54.99600 | 81.31657 | 17559 ft | 364 kts | 264° |
| 2026-05-06 08:25 | 54.99387 | 81.27250 | 17901 ft | 366 kts | 264° |
| 2026-05-06 08:25 | 54.99171 | 81.22821 | 18214 ft | 368 kts | 264° |
| 2026-05-06 08:25 | 54.98952 | 81.18370 | 18502 ft | 370 kts | 264° |
| 2026-05-06 08:26 | 54.98731 | 81.13901 | 18792 ft | 371 kts | 263° |
| 2026-05-06 08:26 | 54.98508 | 81.09425 | 19107 ft | 373 kts | 263° |
| 2026-05-06 08:26 | 54.98281 | 81.04922 | 19435 ft | 374 kts | 263° |
| 2026-05-06 08:26 | 54.98050 | 81.00406 | 19766 ft | 375 kts | 263° |
| 2026-05-06 08:27 | 54.97818 | 80.95870 | 20084 ft | 376 kts | 263° |
| 2026-05-06 08:27 | 54.97577 | 80.91329 | 20398 ft | 378 kts | 263° |
| 2026-05-06 08:27 | 54.97316 | 80.86767 | 20729 ft | 379 kts | 263° |
| 2026-05-06 08:27 | 54.97041 | 80.82203 | 21048 ft | 381 kts | 262° |
| 2026-05-06 08:28 | 54.96756 | 80.77610 | 21369 ft | 382 kts | 262° |
| 2026-05-06 08:28 | 54.96462 | 80.73005 | 21697 ft | 384 kts | 262° |
| 2026-05-06 08:28 | 54.96164 | 80.68381 | 22004 ft | 385 kts | 262° |
| 2026-05-06 08:28 | 54.95868 | 80.63743 | 22307 ft | 387 kts | 262° |
| 2026-05-06 08:29 | 54.95574 | 80.59091 | 22617 ft | 388 kts | 262° |
| 2026-05-06 08:29 | 54.95281 | 80.54416 | 22923 ft | 389 kts | 262° |
| 2026-05-06 08:29 | 54.94987 | 80.49720 | 23226 ft | 391 kts | 262° |
| 2026-05-06 08:29 | 54.94691 | 80.45013 | 23528 ft | 393 kts | 262° |
| 2026-05-06 08:30 | 54.94391 | 80.40278 | 23786 ft | 394 kts | 262° |
| 2026-05-06 08:30 | 54.94090 | 80.35549 | 24035 ft | 395 kts | 262° |
| 2026-05-06 08:30 | 54.93784 | 80.30787 | 24284 ft | 396 kts | 262° |
| 2026-05-06 08:30 | 54.93477 | 80.26028 | 24534 ft | 397 kts | 262° |
| 2026-05-06 08:31 | 54.93168 | 80.21246 | 24782 ft | 398 kts | 262° |
| 2026-05-06 08:31 | 54.92856 | 80.16456 | 25028 ft | 400 kts | 262° |
| 2026-05-06 08:31 | 54.92540 | 80.11646 | 25264 ft | 401 kts | 262° |
| 2026-05-06 08:31 | 54.92226 | 80.06889 | 25501 ft | 402 kts | 262° |
| 2026-05-06 08:32 | 54.91903 | 80.02052 | 25733 ft | 403 kts | 262° |
| 2026-05-06 08:32 | 54.91578 | 79.97202 | 25953 ft | 404 kts | 262° |
| 2026-05-06 08:32 | 54.91249 | 79.92342 | 26167 ft | 405 kts | 262° |
| 2026-05-06 08:32 | 54.90917 | 79.87460 | 26369 ft | 407 kts | 262° |
| 2026-05-06 08:33 | 54.90583 | 79.82571 | 26564 ft | 408 kts | 262° |
| 2026-05-06 08:33 | 54.90247 | 79.77680 | 26750 ft | 409 kts | 262° |
| 2026-05-06 08:33 | 54.89907 | 79.72763 | 26939 ft | 409 kts | 262° |
| 2026-05-06 08:33 | 54.89566 | 79.67859 | 27198 ft | 408 kts | 262° |
| 2026-05-06 08:34 | 54.89225 | 79.62982 | 27465 ft | 407 kts | 262° |
| 2026-05-06 08:34 | 54.88538 | 79.53243 | 27964 ft | 405 kts | 262° |
| 2026-05-06 08:34 | 54.88197 | 79.48458 | 28207 ft | 404 kts | 262° |
| 2026-05-06 08:35 | 54.87846 | 79.43563 | 28458 ft | 403 kts | 261° |
| 2026-05-06 08:35 | 54.87502 | 79.38788 | 28698 ft | 403 kts | 262° |
| 2026-05-06 08:35 | 54.87153 | 79.33971 | 28947 ft | 402 kts | 261° |
| 2026-05-06 08:35 | 54.86802 | 79.29156 | 29189 ft | 401 kts | 261° |
| 2026-05-06 08:36 | 54.86450 | 79.24354 | 29429 ft | 400 kts | 261° |
| 2026-05-06 08:36 | 54.86098 | 79.19574 | 29674 ft | 399 kts | 261° |
| 2026-05-06 08:36 | 54.85744 | 79.14794 | 29901 ft | 398 kts | 261° |
| 2026-05-06 08:36 | 54.85389 | 79.10032 | 30114 ft | 398 kts | 261° |
| 2026-05-06 08:37 | 54.85032 | 79.05265 | 30282 ft | 397 kts | 261° |
| 2026-05-06 08:37 | 54.84678 | 79.00570 | 30445 ft | 397 kts | 261° |
| 2026-05-06 08:37 | 54.84318 | 78.95808 | 30618 ft | 398 kts | 261° |
| 2026-05-06 08:37 | 54.83955 | 78.91050 | 30786 ft | 398 kts | 261° |
| 2026-05-06 08:38 | 54.83592 | 78.86295 | 30952 ft | 398 kts | 261° |
| 2026-05-06 08:38 | 54.83226 | 78.81544 | 31121 ft | 398 kts | 261° |
| 2026-05-06 08:38 | 54.82857 | 78.76773 | 31294 ft | 398 kts | 261° |
| 2026-05-06 08:38 | 54.82488 | 78.72015 | 31457 ft | 398 kts | 261° |
| 2026-05-06 08:39 | 54.82116 | 78.67256 | 31623 ft | 398 kts | 261° |
| 2026-05-06 08:39 | 54.81743 | 78.62509 | 31791 ft | 398 kts | 261° |
| 2026-05-06 08:39 | 54.81367 | 78.57749 | 31946 ft | 398 kts | 261° |
| 2026-05-06 08:39 | 54.80990 | 78.52990 | 32102 ft | 398 kts | 262° |
| 2026-05-06 08:40 | 54.80611 | 78.48242 | 32261 ft | 398 kts | 262° |
| 2026-05-06 08:40 | 54.80230 | 78.43484 | 32423 ft | 398 kts | 262° |
| 2026-05-06 08:40 | 54.79847 | 78.38732 | 32574 ft | 398 kts | 262° |
| 2026-05-06 08:40 | 54.79462 | 78.33974 | 32736 ft | 399 kts | 262° |
| 2026-05-06 08:41 | 54.79073 | 78.29211 | 32889 ft | 399 kts | 261° |
| 2026-05-06 08:41 | 54.78673 | 78.24465 | 33044 ft | 399 kts | 261° |
| 2026-05-06 08:41 | 54.78268 | 78.19713 | 33192 ft | 399 kts | 261° |
| 2026-05-06 08:41 | 54.77863 | 78.14960 | 33344 ft | 399 kts | 261° |
| 2026-05-06 08:42 | 54.77462 | 78.10205 | 33487 ft | 399 kts | 262° |
| 2026-05-06 08:42 | 54.77062 | 78.05447 | 33631 ft | 399 kts | 262° |
| 2026-05-06 08:42 | 54.76663 | 78.00690 | 33777 ft | 399 kts | 262° |
| 2026-05-06 08:42 | 54.76264 | 77.95934 | 33901 ft | 400 kts | 262° |
| 2026-05-06 08:43 | 54.75861 | 77.91165 | 33920 ft | 401 kts | 262° |
| 2026-05-06 08:43 | 54.75052 | 77.81668 | 33925 ft | 402 kts | 262° |
| 2026-05-06 08:44 | 54.74228 | 77.72101 | 33922 ft | 402 kts | 262° |
| 2026-05-06 08:44 | 54.73394 | 77.62530 | 33929 ft | 402 kts | 262° |
| 2026-05-06 08:45 | 54.72553 | 77.52957 | 33926 ft | 403 kts | 262° |
| 2026-05-06 08:45 | 54.71704 | 77.43381 | 33932 ft | 403 kts | 261° |
| 2026-05-06 08:46 | 54.70844 | 77.33801 | 33936 ft | 403 kts | 261° |
| 2026-05-06 08:46 | 54.69977 | 77.24209 | 33933 ft | 403 kts | 261° |
| 2026-05-06 08:47 | 54.69109 | 77.14633 | 33937 ft | 403 kts | 261° |
| 2026-05-06 08:47 | 54.68231 | 77.05059 | 33932 ft | 404 kts | 261° |
| 2026-05-06 08:48 | 54.67344 | 76.95486 | 33926 ft | 404 kts | 261° |
| 2026-05-06 08:48 | 54.66446 | 76.85884 | 33937 ft | 405 kts | 261° |
| 2026-05-06 08:49 | 54.65540 | 76.76285 | 33942 ft | 406 kts | 261° |
| 2026-05-06 08:49 | 54.64626 | 76.66674 | 33930 ft | 406 kts | 261° |
| 2026-05-06 08:50 | 54.63709 | 76.57128 | 33940 ft | 406 kts | 261° |
| 2026-05-06 08:50 | 54.62777 | 76.47503 | 33944 ft | 407 kts | 261° |
| 2026-05-06 08:51 | 54.61836 | 76.37863 | 33947 ft | 407 kts | 261° |
| 2026-05-06 08:51 | 54.60887 | 76.28235 | 33944 ft | 408 kts | 261° |
| 2026-05-06 08:52 | 54.59928 | 76.18583 | 33946 ft | 408 kts | 261° |
| 2026-05-06 08:52 | 54.58962 | 76.08942 | 33948 ft | 408 kts | 261° |
| 2026-05-06 08:53 | 54.57988 | 75.99294 | 33951 ft | 409 kts | 261° |
| 2026-05-06 08:53 | 54.57008 | 75.89678 | 33957 ft | 409 kts | 261° |
| 2026-05-06 08:54 | 54.56016 | 75.80018 | 33954 ft | 410 kts | 261° |
| 2026-05-06 08:54 | 54.55014 | 75.70340 | 33958 ft | 410 kts | 261° |
| 2026-05-06 08:55 | 54.54000 | 75.60662 | 33962 ft | 411 kts | 261° |
| 2026-05-06 08:55 | 54.52980 | 75.50965 | 33969 ft | 411 kts | 261° |
| 2026-05-06 08:56 | 54.51955 | 75.41254 | 33974 ft | 412 kts | 261° |
| 2026-05-06 08:56 | 54.50929 | 75.31621 | 33974 ft | 412 kts | 261° |
| 2026-05-06 08:57 | 54.49879 | 75.21864 | 33979 ft | 412 kts | 260° |
| 2026-05-06 08:57 | 54.48834 | 75.12226 | 33987 ft | 413 kts | 260° |
| 2026-05-06 08:58 | 54.47774 | 75.02529 | 33987 ft | 413 kts | 260° |
| 2026-05-06 08:58 | 54.46706 | 74.92833 | 33995 ft | 413 kts | 260° |
| 2026-05-06 08:59 | 54.45629 | 74.83130 | 33996 ft | 413 kts | 260° |
| 2026-05-06 08:59 | 54.44546 | 74.73449 | 33993 ft | 413 kts | 260° |
| 2026-05-06 09:00 | 54.43453 | 74.63750 | 33998 ft | 413 kts | 260° |
| 2026-05-06 09:00 | 54.42352 | 74.54060 | 34001 ft | 414 kts | 260° |
| 2026-05-06 09:01 | 54.41243 | 74.44363 | 33999 ft | 414 kts | 260° |
| 2026-05-06 09:01 | 54.40126 | 74.34680 | 34001 ft | 414 kts | 260° |
| 2026-05-06 09:02 | 54.39000 | 74.24982 | 33999 ft | 414 kts | 260° |
| 2026-05-06 09:02 | 54.37867 | 74.15307 | 34002 ft | 414 kts | 260° |
| 2026-05-06 09:03 | 54.36725 | 74.05616 | 34001 ft | 414 kts | 260° |
| 2026-05-06 09:03 | 54.35574 | 73.95936 | 33999 ft | 414 kts | 260° |
| 2026-05-06 09:04 | 54.34413 | 73.86255 | 34002 ft | 414 kts | 260° |
| 2026-05-06 09:04 | 54.33250 | 73.76585 | 34008 ft | 415 kts | 260° |
| 2026-05-06 09:05 | 54.32087 | 73.66978 | 34019 ft | 415 kts | 260° |
| 2026-05-06 09:05 | 54.30906 | 73.57314 | 34017 ft | 415 kts | 260° |
| 2026-05-06 09:06 | 54.29715 | 73.47647 | 34021 ft | 414 kts | 260° |
| 2026-05-06 09:06 | 54.28521 | 73.38012 | 34024 ft | 414 kts | 260° |
| 2026-05-06 09:07 | 54.27320 | 73.28389 | 34017 ft | 413 kts | 260° |
| 2026-05-06 09:07 | 54.26112 | 73.18779 | 34024 ft | 413 kts | 259° |
| 2026-05-06 09:08 | 54.24897 | 73.09179 | 34030 ft | 413 kts | 259° |
| 2026-05-06 09:08 | 54.23675 | 72.99593 | 34034 ft | 413 kts | 259° |
| 2026-05-06 09:09 | 54.22446 | 72.90009 | 34041 ft | 412 kts | 259° |
| 2026-05-06 09:09 | 54.21210 | 72.80443 | 34041 ft | 412 kts | 259° |
| 2026-05-06 09:10 | 54.19970 | 72.70909 | 34039 ft | 411 kts | 259° |
| 2026-05-06 09:10 | 54.18934 | 72.62990 | 34042 ft | 411 kts | 259° |
| 2026-05-06 09:11 | 54.17682 | 72.53487 | 34040 ft | 410 kts | 259° |
| 2026-05-06 09:11 | 54.16412 | 72.43997 | 34042 ft | 410 kts | 257° |
| 2026-05-06 09:12 | 54.14048 | 72.35104 | 34046 ft | 416 kts | 242° |
| 2026-05-06 09:12 | 54.10960 | 72.26763 | 34056 ft | 416 kts | 242° |
| 2026-05-06 09:13 | 54.07880 | 72.18428 | 34052 ft | 415 kts | 242° |
| 2026-05-06 09:13 | 54.04803 | 72.10117 | 34063 ft | 415 kts | 242° |
| 2026-05-06 09:14 | 54.01722 | 72.01826 | 34052 ft | 414 kts | 242° |
| 2026-05-06 09:14 | 53.98640 | 71.93566 | 34061 ft | 413 kts | 242° |
| 2026-05-06 09:15 | 53.95563 | 71.85348 | 34062 ft | 412 kts | 242° |
| 2026-05-06 09:15 | 53.92488 | 71.77162 | 34067 ft | 411 kts | 242° |
| 2026-05-06 09:16 | 53.89416 | 71.69007 | 34070 ft | 410 kts | 242° |
| 2026-05-06 09:16 | 53.86364 | 71.60935 | 34073 ft | 409 kts | 242° |
| 2026-05-06 09:17 | 53.83298 | 71.52848 | 34071 ft | 407 kts | 242° |
| 2026-05-06 09:17 | 53.80234 | 71.44797 | 34073 ft | 406 kts | 242° |
| 2026-05-06 09:18 | 53.77173 | 71.36775 | 34070 ft | 405 kts | 242° |
| 2026-05-06 09:18 | 53.74118 | 71.28798 | 34073 ft | 404 kts | 242° |
| 2026-05-06 09:19 | 53.71083 | 71.20896 | 34071 ft | 403 kts | 242° |
| 2026-05-06 09:19 | 53.68030 | 71.12970 | 34071 ft | 402 kts | 242° |
| 2026-05-06 09:20 | 53.64975 | 71.05068 | 34072 ft | 402 kts | 242° |
| 2026-05-06 09:20 | 53.61920 | 70.97188 | 34080 ft | 401 kts | 242° |
| 2026-05-06 09:21 | 53.58864 | 70.89329 | 34084 ft | 401 kts | 242° |
| 2026-05-06 09:21 | 53.55802 | 70.81481 | 34084 ft | 400 kts | 242° |
| 2026-05-06 09:22 | 53.52744 | 70.73669 | 34085 ft | 399 kts | 241° |
| 2026-05-06 09:22 | 53.49688 | 70.65885 | 34084 ft | 398 kts | 241° |
| 2026-05-06 09:23 | 53.46633 | 70.58126 | 34084 ft | 398 kts | 241° |
| 2026-05-06 09:23 | 53.43580 | 70.50395 | 34084 ft | 397 kts | 241° |
| 2026-05-06 09:24 | 53.40520 | 70.42671 | 34081 ft | 397 kts | 241° |
| 2026-05-06 09:24 | 53.37461 | 70.34975 | 34083 ft | 397 kts | 241° |
| 2026-05-06 09:25 | 53.34419 | 70.27341 | 34080 ft | 396 kts | 241° |
| 2026-05-06 09:25 | 53.31357 | 70.19683 | 34080 ft | 396 kts | 241° |
| 2026-05-06 09:26 | 53.28296 | 70.12050 | 34080 ft | 395 kts | 240° |
| 2026-05-06 09:26 | 53.25227 | 70.04420 | 34078 ft | 395 kts | 240° |
| 2026-05-06 09:27 | 53.22161 | 69.96820 | 34079 ft | 395 kts | 240° |
| 2026-05-06 09:27 | 53.19089 | 69.89226 | 34075 ft | 395 kts | 240° |
| 2026-05-06 09:28 | 53.16009 | 69.81637 | 34076 ft | 395 kts | 240° |
| 2026-05-06 09:28 | 53.12924 | 69.74057 | 34075 ft | 395 kts | 240° |
| 2026-05-06 09:29 | 53.09833 | 69.66486 | 34088 ft | 395 kts | 240° |
| 2026-05-06 09:29 | 53.06738 | 69.58927 | 34079 ft | 396 kts | 240° |
| 2026-05-06 09:30 | 53.03635 | 69.51360 | 34073 ft | 396 kts | 240° |
| 2026-05-06 09:30 | 53.00569 | 69.43775 | 34071 ft | 395 kts | 240° |
| 2026-05-06 09:31 | 52.97479 | 69.36211 | 34063 ft | 396 kts | 240° |
| 2026-05-06 09:31 | 52.94359 | 69.28689 | 34055 ft | 396 kts | 239° |
| 2026-05-06 09:32 | 52.91224 | 69.21174 | 34063 ft | 396 kts | 239° |
| 2026-05-06 09:32 | 52.88087 | 69.13668 | 34058 ft | 396 kts | 239° |
| 2026-05-06 09:33 | 52.84948 | 69.06165 | 34063 ft | 397 kts | 239° |
| 2026-05-06 09:33 | 52.81805 | 68.98670 | 34067 ft | 397 kts | 239° |
| 2026-05-06 09:34 | 52.78656 | 68.91185 | 34065 ft | 397 kts | 239° |
| 2026-05-06 09:34 | 52.75525 | 68.83763 | 34066 ft | 396 kts | 239° |
| 2026-05-06 09:35 | 52.72369 | 68.76305 | 34067 ft | 396 kts | 239° |
| 2026-05-06 09:35 | 52.69206 | 68.68851 | 34071 ft | 396 kts | 239° |
| 2026-05-06 09:36 | 52.66040 | 68.61411 | 34069 ft | 397 kts | 239° |
| 2026-05-06 09:36 | 52.62870 | 68.53984 | 34070 ft | 396 kts | 239° |
| 2026-05-06 09:37 | 52.59695 | 68.46565 | 34069 ft | 396 kts | 239° |
| 2026-05-06 09:37 | 52.56520 | 68.39168 | 34063 ft | 396 kts | 239° |
| 2026-05-06 09:38 | 52.53340 | 68.31780 | 34063 ft | 396 kts | 239° |
| 2026-05-06 09:38 | 52.50153 | 68.24396 | 34066 ft | 396 kts | 239° |
| 2026-05-06 09:39 | 52.46967 | 68.17036 | 34066 ft | 396 kts | 239° |
| 2026-05-06 09:39 | 52.43775 | 68.09683 | 34080 ft | 395 kts | 239° |
| 2026-05-06 09:40 | 52.40583 | 68.02344 | 34081 ft | 395 kts | 239° |
| 2026-05-06 09:40 | 52.35858 | 67.91319 | 34079 ft | 394 kts | 239° |
| 2026-05-06 09:41 | 52.32697 | 67.84054 | 34078 ft | 394 kts | 239° |
| 2026-05-06 09:41 | 52.29498 | 67.76787 | 34076 ft | 394 kts | 239° |
| 2026-05-06 09:42 | 52.26294 | 67.69536 | 34076 ft | 393 kts | 239° |
| 2026-05-06 09:42 | 52.23098 | 67.62313 | 34080 ft | 392 kts | 239° |
| 2026-05-06 09:43 | 52.19902 | 67.55107 | 34083 ft | 392 kts | 239° |
| 2026-05-06 09:43 | 52.16782 | 67.47853 | 34081 ft | 390 kts | 240° |
| 2026-05-06 09:44 | 52.13726 | 67.40567 | 34081 ft | 389 kts | 241° |
| 2026-05-06 09:44 | 52.10667 | 67.33316 | 34085 ft | 388 kts | 240° |
| 2026-05-06 09:45 | 52.07591 | 67.26104 | 34085 ft | 387 kts | 240° |
| 2026-05-06 09:45 | 52.04516 | 67.18933 | 34084 ft | 386 kts | 240° |
| 2026-05-06 09:46 | 52.01443 | 67.11781 | 34081 ft | 385 kts | 240° |
| 2026-05-06 09:46 | 51.98380 | 67.04664 | 34084 ft | 384 kts | 240° |
| 2026-05-06 09:47 | 51.95317 | 66.97565 | 34080 ft | 384 kts | 240° |
| 2026-05-06 09:47 | 51.92254 | 66.90487 | 34077 ft | 383 kts | 240° |
| 2026-05-06 09:48 | 51.89190 | 66.83428 | 34083 ft | 383 kts | 240° |
| 2026-05-06 09:48 | 51.86145 | 66.76431 | 34080 ft | 382 kts | 240° |
| 2026-05-06 09:49 | 51.83064 | 66.69369 | 34079 ft | 382 kts | 240° |
| 2026-05-06 09:49 | 51.79998 | 66.62363 | 34082 ft | 381 kts | 240° |
| 2026-05-06 09:50 | 51.76956 | 66.55428 | 34077 ft | 381 kts | 239° |
| 2026-05-06 09:50 | 51.73890 | 66.48458 | 34083 ft | 380 kts | 239° |
| 2026-05-06 09:51 | 51.70821 | 66.41500 | 34079 ft | 380 kts | 239° |
| 2026-05-06 09:51 | 51.67758 | 66.34573 | 34079 ft | 379 kts | 239° |
| 2026-05-06 09:52 | 51.64693 | 66.27661 | 34081 ft | 379 kts | 239° |
| 2026-05-06 09:52 | 51.61629 | 66.20769 | 34073 ft | 378 kts | 239° |
| 2026-05-06 09:53 | 51.58566 | 66.13898 | 34081 ft | 378 kts | 239° |
| 2026-05-06 09:53 | 51.55521 | 66.07085 | 34076 ft | 377 kts | 238° |
| 2026-05-06 09:54 | 51.52458 | 66.00249 | 34074 ft | 377 kts | 238° |
| 2026-05-06 09:54 | 51.49393 | 65.93426 | 34071 ft | 377 kts | 238° |
| 2026-05-06 09:55 | 51.46321 | 65.86604 | 34067 ft | 377 kts | 238° |
| 2026-05-06 09:55 | 51.43247 | 65.79799 | 34066 ft | 377 kts | 238° |
| 2026-05-06 09:56 | 51.40173 | 65.73009 | 34056 ft | 377 kts | 238° |
| 2026-05-06 09:56 | 51.37093 | 65.66225 | 34068 ft | 377 kts | 237° |
| 2026-05-06 09:57 | 51.34010 | 65.59451 | 34063 ft | 377 kts | 237° |
| 2026-05-06 09:57 | 51.30919 | 65.52677 | 34056 ft | 377 kts | 237° |
| 2026-05-06 09:58 | 51.27826 | 65.45915 | 34058 ft | 377 kts | 237° |
| 2026-05-06 09:58 | 51.25253 | 65.40304 | 34046 ft | 377 kts | 237° |
| 2026-05-06 09:59 | 51.22149 | 65.33551 | 34044 ft | 377 kts | 237° |
| 2026-05-06 09:59 | 51.19047 | 65.26820 | 34040 ft | 377 kts | 236° |
| 2026-05-06 10:00 | 51.15938 | 65.20092 | 34036 ft | 377 kts | 236° |
| 2026-05-06 10:00 | 51.12826 | 65.13373 | 34040 ft | 377 kts | 236° |
| 2026-05-06 10:01 | 51.09712 | 65.06669 | 34036 ft | 377 kts | 236° |
| 2026-05-06 10:01 | 51.06610 | 65.00004 | 34035 ft | 377 kts | 236° |
| 2026-05-06 10:02 | 51.03483 | 64.93305 | 34040 ft | 377 kts | 236° |
| 2026-05-06 10:02 | 51.00356 | 64.86624 | 34037 ft | 377 kts | 235° |
| 2026-05-06 10:03 | 50.97226 | 64.79951 | 34038 ft | 376 kts | 235° |
| 2026-05-06 10:03 | 50.94095 | 64.73294 | 34036 ft | 376 kts | 235° |
| 2026-05-06 10:04 | 50.90963 | 64.66654 | 34035 ft | 376 kts | 235° |
| 2026-05-06 10:04 | 50.87823 | 64.60013 | 34030 ft | 377 kts | 235° |
| 2026-05-06 10:05 | 50.84675 | 64.53376 | 34024 ft | 377 kts | 234° |
| 2026-05-06 10:05 | 50.81534 | 64.46783 | 34027 ft | 378 kts | 234° |
| 2026-05-06 10:06 | 50.78365 | 64.40151 | 34025 ft | 378 kts | 234° |
| 2026-05-06 10:06 | 50.75199 | 64.33509 | 34019 ft | 378 kts | 234° |
| 2026-05-06 10:07 | 50.72032 | 64.26873 | 34014 ft | 379 kts | 234° |
| 2026-05-06 10:07 | 50.68855 | 64.20241 | 34014 ft | 379 kts | 234° |
| 2026-05-06 10:08 | 50.65668 | 64.13609 | 34010 ft | 380 kts | 233° |
| 2026-05-06 10:08 | 50.62475 | 64.06981 | 34006 ft | 380 kts | 233° |
| 2026-05-06 10:09 | 50.59274 | 64.00353 | 34006 ft | 380 kts | 233° |
| 2026-05-06 10:09 | 50.56068 | 63.93728 | 34008 ft | 381 kts | 233° |
| 2026-05-06 10:10 | 50.52853 | 63.87104 | 34002 ft | 381 kts | 233° |
| 2026-05-06 10:10 | 50.49635 | 63.80488 | 34005 ft | 381 kts | 233° |
| 2026-05-06 10:11 | 50.46412 | 63.73880 | 33999 ft | 381 kts | 232° |
| 2026-05-06 10:11 | 50.43181 | 63.67274 | 34002 ft | 382 kts | 232° |
| 2026-05-06 10:12 | 50.39946 | 63.60673 | 33992 ft | 382 kts | 232° |
| 2026-05-06 10:12 | 50.36699 | 63.54065 | 33990 ft | 383 kts | 232° |
| 2026-05-06 10:13 | 50.33471 | 63.47513 | 33985 ft | 383 kts | 232° |
| 2026-05-06 10:13 | 50.30212 | 63.40914 | 33979 ft | 384 kts | 232° |
| 2026-05-06 10:14 | 50.26945 | 63.34314 | 33985 ft | 384 kts | 232° |
| 2026-05-06 10:14 | 50.23670 | 63.27717 | 33985 ft | 384 kts | 231° |
| 2026-05-06 10:15 | 50.20388 | 63.21119 | 33969 ft | 385 kts | 231° |
| 2026-05-06 10:15 | 50.17101 | 63.14531 | 33972 ft | 385 kts | 231° |
| 2026-05-06 10:16 | 50.13804 | 63.07937 | 33971 ft | 385 kts | 231° |
| 2026-05-06 10:16 | 50.10526 | 63.01398 | 33966 ft | 386 kts | 231° |
| 2026-05-06 10:17 | 50.07214 | 62.94814 | 33971 ft | 386 kts | 231° |
| 2026-05-06 10:17 | 50.03609 | 62.88633 | 33958 ft | 386 kts | 223° |
| 2026-05-06 10:18 | 49.99657 | 62.82970 | 33957 ft | 387 kts | 223° |
| 2026-05-06 10:18 | 49.95695 | 62.77299 | 33955 ft | 388 kts | 223° |
| 2026-05-06 10:19 | 49.91727 | 62.71625 | 33955 ft | 388 kts | 222° |
| 2026-05-06 10:19 | 49.87748 | 62.65948 | 33956 ft | 389 kts | 222° |
| 2026-05-06 10:20 | 49.83762 | 62.60274 | 33948 ft | 389 kts | 222° |
| 2026-05-06 10:20 | 49.79762 | 62.54598 | 33948 ft | 390 kts | 222° |
| 2026-05-06 10:21 | 49.75799 | 62.48845 | 33951 ft | 392 kts | 227° |
| 2026-05-06 10:21 | 49.72384 | 62.42270 | 33943 ft | 393 kts | 230° |
| 2026-05-06 10:22 | 49.68972 | 62.35663 | 33944 ft | 394 kts | 230° |
| 2026-05-06 10:22 | 49.65544 | 62.29058 | 33938 ft | 394 kts | 230° |
| 2026-05-06 10:23 | 49.62113 | 62.22453 | 33933 ft | 395 kts | 230° |
| 2026-05-06 10:23 | 49.58696 | 62.15889 | 33935 ft | 395 kts | 230° |
| 2026-05-06 10:24 | 49.55249 | 62.09281 | 33935 ft | 396 kts | 230° |
| 2026-05-06 10:24 | 49.51787 | 62.02661 | 34047 ft | 399 kts | 230° |
| 2026-05-06 10:25 | 49.50043 | 61.99333 | 34161 ft | 400 kts | 230° |
| 2026-05-06 10:25 | 49.48296 | 61.96004 | 34290 ft | 400 kts | 230° |
| 2026-05-06 10:25 | 49.46545 | 61.92671 | 34430 ft | 401 kts | 230° |
| 2026-05-06 10:25 | 49.44791 | 61.89337 | 34555 ft | 401 kts | 230° |
| 2026-05-06 10:26 | 49.43039 | 61.86010 | 34695 ft | 401 kts | 230° |
| 2026-05-06 10:26 | 49.41281 | 61.82675 | 34821 ft | 401 kts | 230° |
| 2026-05-06 10:26 | 49.39522 | 61.79344 | 34970 ft | 402 kts | 230° |
| 2026-05-06 10:26 | 49.37762 | 61.76016 | 35108 ft | 402 kts | 230° |
| 2026-05-06 10:27 | 49.36001 | 61.72688 | 35236 ft | 402 kts | 230° |
| 2026-05-06 10:27 | 49.34239 | 61.69364 | 35367 ft | 402 kts | 230° |
| 2026-05-06 10:27 | 49.32476 | 61.66043 | 35484 ft | 402 kts | 230° |
| 2026-05-06 10:27 | 49.30708 | 61.62715 | 35612 ft | 402 kts | 230° |
| 2026-05-06 10:28 | 49.28940 | 61.59392 | 35739 ft | 402 kts | 230° |
| 2026-05-06 10:28 | 49.27196 | 61.56118 | 35884 ft | 402 kts | 230° |
| 2026-05-06 10:28 | 49.23648 | 61.49468 | 35926 ft | 404 kts | 230° |
| 2026-05-06 10:29 | 49.20087 | 61.42812 | 35923 ft | 404 kts | 230° |
| 2026-05-06 10:29 | 49.16518 | 61.36158 | 35922 ft | 405 kts | 230° |
| 2026-05-06 10:30 | 49.12948 | 61.29518 | 35923 ft | 405 kts | 230° |
| 2026-05-06 10:30 | 49.09365 | 61.22871 | 35924 ft | 405 kts | 230° |
| 2026-05-06 10:31 | 49.05778 | 61.16233 | 35925 ft | 406 kts | 230° |
| 2026-05-06 10:31 | 49.02180 | 61.09591 | 35925 ft | 406 kts | 230° |
| 2026-05-06 10:32 | 48.98577 | 61.02956 | 35919 ft | 406 kts | 230° |
| 2026-05-06 10:32 | 48.94972 | 60.96335 | 35919 ft | 406 kts | 230° |
| 2026-05-06 10:33 | 48.91361 | 60.89718 | 35918 ft | 407 kts | 230° |
| 2026-05-06 10:33 | 48.87766 | 60.83148 | 35913 ft | 407 kts | 230° |
| 2026-05-06 10:34 | 48.84139 | 60.76533 | 35910 ft | 407 kts | 230° |
| 2026-05-06 10:34 | 48.80507 | 60.69928 | 35912 ft | 408 kts | 230° |
| 2026-05-06 10:35 | 48.76870 | 60.63328 | 35905 ft | 408 kts | 230° |
| 2026-05-06 10:35 | 48.73228 | 60.56738 | 35906 ft | 408 kts | 230° |
| 2026-05-06 10:36 | 48.69572 | 60.50137 | 35907 ft | 409 kts | 230° |
| 2026-05-06 10:36 | 48.65915 | 60.43552 | 35908 ft | 409 kts | 230° |
| 2026-05-06 10:37 | 48.62253 | 60.36972 | 35904 ft | 409 kts | 230° |
| 2026-05-06 10:37 | 48.58580 | 60.30389 | 35905 ft | 409 kts | 230° |
| 2026-05-06 10:38 | 48.54912 | 60.23832 | 35898 ft | 409 kts | 230° |
| 2026-05-06 10:38 | 48.51230 | 60.17266 | 35893 ft | 410 kts | 230° |
| 2026-05-06 10:39 | 48.47544 | 60.10709 | 35891 ft | 410 kts | 230° |
| 2026-05-06 10:39 | 48.43879 | 60.04205 | 35881 ft | 410 kts | 230° |
| 2026-05-06 10:40 | 48.40185 | 59.97666 | 35880 ft | 410 kts | 230° |
| 2026-05-06 10:40 | 48.36485 | 59.91130 | 35879 ft | 410 kts | 230° |
| 2026-05-06 10:41 | 48.32779 | 59.84602 | 35876 ft | 410 kts | 230° |
| 2026-05-06 10:41 | 48.29071 | 59.78086 | 35877 ft | 411 kts | 230° |
| 2026-05-06 10:42 | 48.25352 | 59.71565 | 35877 ft | 411 kts | 229° |
| 2026-05-06 10:42 | 48.21637 | 59.65067 | 35874 ft | 411 kts | 230° |
| 2026-05-06 10:43 | 48.17912 | 59.58569 | 35871 ft | 411 kts | 229° |
| 2026-05-06 10:44 | 48.12319 | 59.48839 | 35867 ft | 411 kts | 230° |
| 2026-05-06 10:44 | 48.08585 | 59.42364 | 35865 ft | 411 kts | 230° |
| 2026-05-06 10:45 | 48.04850 | 59.35902 | 35867 ft | 411 kts | 230° |
| 2026-05-06 10:45 | 48.01109 | 59.29445 | 35865 ft | 411 kts | 230° |
| 2026-05-06 10:46 | 47.97390 | 59.23041 | 35866 ft | 411 kts | 230° |
| 2026-05-06 10:46 | 47.93642 | 59.16604 | 35865 ft | 411 kts | 230° |
| 2026-05-06 10:47 | 47.89888 | 59.10171 | 35865 ft | 411 kts | 229° |
| 2026-05-06 10:47 | 47.86136 | 59.03757 | 35864 ft | 411 kts | 229° |
| 2026-05-06 10:48 | 47.82375 | 58.97342 | 35844 ft | 407 kts | 228° |
| 2026-05-06 10:48 | 47.78715 | 58.91113 | 35864 ft | 396 kts | 228° |
| 2026-05-06 10:49 | 47.75098 | 58.84973 | 35868 ft | 394 kts | 228° |
| 2026-05-06 10:49 | 47.71487 | 58.78856 | 35864 ft | 393 kts | 228° |
| 2026-05-06 10:50 | 47.67876 | 58.72752 | 35871 ft | 393 kts | 228° |
| 2026-05-06 10:50 | 47.64262 | 58.66657 | 35871 ft | 393 kts | 228° |
| 2026-05-06 10:51 | 47.60646 | 58.60572 | 35870 ft | 393 kts | 228° |
| 2026-05-06 10:51 | 47.57029 | 58.54499 | 35876 ft | 393 kts | 228° |
| 2026-05-06 10:52 | 47.54015 | 58.49448 | 35880 ft | 393 kts | 227° |
| 2026-05-06 10:52 | 47.50392 | 58.43392 | 35881 ft | 393 kts | 227° |
| 2026-05-06 10:53 | 47.46172 | 58.36352 | 35881 ft | 393 kts | 227° |
| 2026-05-06 10:53 | 47.42540 | 58.30308 | 35882 ft | 394 kts | 227° |
| 2026-05-06 10:54 | 47.39492 | 58.25246 | 35886 ft | 394 kts | 227° |
| 2026-05-06 10:54 | 47.35850 | 58.19210 | 35886 ft | 394 kts | 227° |
| 2026-05-06 10:55 | 47.32198 | 58.13177 | 35887 ft | 394 kts | 227° |
| 2026-05-06 10:55 | 47.28537 | 58.07169 | 35883 ft | 394 kts | 227° |
| 2026-05-06 10:56 | 47.24833 | 58.01216 | 35883 ft | 394 kts | 226° |
| 2026-05-06 10:56 | 47.21141 | 57.95318 | 35885 ft | 395 kts | 226° |
| 2026-05-06 10:57 | 47.17424 | 57.89375 | 35889 ft | 395 kts | 226° |
| 2026-05-06 10:57 | 47.13704 | 57.83428 | 35888 ft | 395 kts | 226° |
| 2026-05-06 10:58 | 47.09983 | 57.77489 | 35889 ft | 395 kts | 226° |
| 2026-05-06 10:58 | 47.06255 | 57.71555 | 35895 ft | 396 kts | 226° |
| 2026-05-06 10:59 | 47.02518 | 57.65622 | 35892 ft | 396 kts | 226° |
| 2026-05-06 10:59 | 46.98777 | 57.59694 | 35890 ft | 396 kts | 226° |
| 2026-05-06 11:00 | 46.95028 | 57.53767 | 35892 ft | 397 kts | 226° |
| 2026-05-06 11:00 | 46.91276 | 57.47849 | 35894 ft | 397 kts | 226° |
| 2026-05-06 11:01 | 46.87515 | 57.41929 | 35898 ft | 397 kts | 226° |
| 2026-05-06 11:01 | 46.83751 | 57.36017 | 35899 ft | 398 kts | 226° |
| 2026-05-06 11:02 | 46.79982 | 57.30110 | 35901 ft | 398 kts | 226° |
| 2026-05-06 11:02 | 46.76200 | 57.24196 | 35900 ft | 398 kts | 226° |
| 2026-05-06 11:03 | 46.72414 | 57.18288 | 35906 ft | 399 kts | 225° |
| 2026-05-06 11:03 | 46.68622 | 57.12384 | 35904 ft | 399 kts | 225° |
| 2026-05-06 11:04 | 46.64826 | 57.06487 | 35907 ft | 399 kts | 225° |
| 2026-05-06 11:04 | 46.61024 | 57.00594 | 35918 ft | 399 kts | 225° |
| 2026-05-06 11:05 | 46.57215 | 56.94701 | 35914 ft | 400 kts | 225° |
| 2026-05-06 11:05 | 46.53405 | 56.88825 | 35913 ft | 400 kts | 225° |
| 2026-05-06 11:06 | 46.49615 | 56.82914 | 35916 ft | 400 kts | 229° |
| 2026-05-06 11:06 | 46.46615 | 56.76076 | 35911 ft | 403 kts | 237° |
| 2026-05-06 11:07 | 46.43754 | 56.69084 | 35914 ft | 403 kts | 236° |
| 2026-05-06 11:07 | 46.40902 | 56.62163 | 35912 ft | 403 kts | 236° |
| 2026-05-06 11:08 | 46.38029 | 56.55198 | 35914 ft | 403 kts | 236° |
| 2026-05-06 11:08 | 46.35153 | 56.48232 | 35913 ft | 403 kts | 236° |
| 2026-05-06 11:09 | 46.32280 | 56.41285 | 35916 ft | 402 kts | 236° |
| 2026-05-06 11:09 | 46.29376 | 56.34370 | 35917 ft | 402 kts | 235° |
| 2026-05-06 11:10 | 46.26420 | 56.27509 | 35917 ft | 402 kts | 235° |
| 2026-05-06 11:10 | 46.23505 | 56.20605 | 35914 ft | 403 kts | 236° |
| 2026-05-06 11:11 | 46.20620 | 56.13660 | 35920 ft | 403 kts | 236° |
| 2026-05-06 11:11 | 46.17736 | 56.06714 | 35916 ft | 403 kts | 236° |
| 2026-05-06 11:12 | 46.14842 | 55.99776 | 35917 ft | 404 kts | 236° |
| 2026-05-06 11:12 | 46.11945 | 55.92850 | 35916 ft | 404 kts | 236° |
| 2026-05-06 11:13 | 46.09041 | 55.85911 | 35918 ft | 404 kts | 236° |
| 2026-05-06 11:13 | 46.06144 | 55.78979 | 35909 ft | 404 kts | 236° |
| 2026-05-06 11:14 | 46.03235 | 55.72049 | 35922 ft | 404 kts | 236° |
| 2026-05-06 11:14 | 46.00310 | 55.65157 | 35910 ft | 404 kts | 235° |
| 2026-05-06 11:15 | 45.97369 | 55.58272 | 35912 ft | 404 kts | 235° |
| 2026-05-06 11:15 | 45.94428 | 55.51396 | 35920 ft | 404 kts | 235° |
| 2026-05-06 11:16 | 45.91465 | 55.44544 | 35918 ft | 402 kts | 231° |
| 2026-05-06 11:16 | 45.89536 | 55.41697 | 35929 ft | 397 kts | 218° |
| 2026-05-06 11:16 | 45.87396 | 55.39169 | 35919 ft | 398 kts | 218° |
| 2026-05-06 11:17 | 45.83121 | 55.34125 | 35913 ft | 398 kts | 218° |
| 2026-05-06 11:17 | 45.78840 | 55.29080 | 35920 ft | 399 kts | 218° |
| 2026-05-06 11:18 | 45.74552 | 55.24031 | 35919 ft | 399 kts | 218° |
| 2026-05-06 11:18 | 45.70829 | 55.18195 | 35914 ft | 403 kts | 236° |
| 2026-05-06 11:19 | 45.68050 | 55.11281 | 35900 ft | 405 kts | 237° |
| 2026-05-06 11:19 | 45.65312 | 55.04242 | 35907 ft | 405 kts | 237° |
| 2026-05-06 11:20 | 45.62500 | 54.97266 | 35909 ft | 405 kts | 236° |
| 2026-05-06 11:20 | 45.59606 | 54.90368 | 35911 ft | 405 kts | 235° |
| 2026-05-06 11:21 | 45.56683 | 54.83475 | 35909 ft | 406 kts | 235° |
| 2026-05-06 11:21 | 45.53776 | 54.76571 | 35912 ft | 406 kts | 236° |
| 2026-05-06 11:22 | 45.50870 | 54.69666 | 35912 ft | 407 kts | 235° |
| 2026-05-06 11:22 | 45.47947 | 54.62753 | 35915 ft | 407 kts | 235° |
| 2026-05-06 11:23 | 45.45013 | 54.55856 | 35915 ft | 408 kts | 235° |
| 2026-05-06 11:23 | 45.42068 | 54.48949 | 35920 ft | 408 kts | 235° |
| 2026-05-06 11:24 | 45.39173 | 54.42165 | 35921 ft | 409 kts | 235° |
| 2026-05-06 11:24 | 45.36216 | 54.35249 | 35925 ft | 409 kts | 235° |
| 2026-05-06 11:25 | 45.33270 | 54.28376 | 35929 ft | 410 kts | 235° |
| 2026-05-06 11:25 | 45.30296 | 54.21465 | 35930 ft | 410 kts | 235° |
| 2026-05-06 11:26 | 45.27316 | 54.14555 | 35926 ft | 410 kts | 235° |
| 2026-05-06 11:26 | 45.24330 | 54.07646 | 35925 ft | 411 kts | 235° |
| 2026-05-06 11:27 | 45.21341 | 54.00744 | 35926 ft | 411 kts | 235° |
| 2026-05-06 11:27 | 45.18344 | 53.93850 | 35924 ft | 411 kts | 235° |
| 2026-05-06 11:28 | 45.15343 | 53.86946 | 35927 ft | 411 kts | 236° |
| 2026-05-06 11:28 | 45.12333 | 53.80043 | 35923 ft | 412 kts | 235° |
| 2026-05-06 11:29 | 45.09340 | 53.73208 | 35922 ft | 411 kts | 235° |
| 2026-05-06 11:29 | 45.06317 | 53.66320 | 35923 ft | 412 kts | 235° |
| 2026-05-06 11:30 | 45.03295 | 53.59448 | 35920 ft | 411 kts | 235° |
| 2026-05-06 11:30 | 45.00275 | 53.52580 | 35917 ft | 411 kts | 235° |
| 2026-05-06 11:31 | 44.97250 | 53.45719 | 35919 ft | 411 kts | 235° |
| 2026-05-06 11:31 | 44.94211 | 53.38871 | 35919 ft | 411 kts | 235° |
| 2026-05-06 11:32 | 44.91169 | 53.32030 | 35919 ft | 411 kts | 235° |
| 2026-05-06 11:32 | 44.88126 | 53.25188 | 35912 ft | 411 kts | 235° |
| 2026-05-06 11:33 | 44.85079 | 53.18370 | 35909 ft | 411 kts | 235° |
| 2026-05-06 11:33 | 44.82023 | 53.11552 | 35911 ft | 411 kts | 235° |
| 2026-05-06 11:34 | 44.78977 | 53.04735 | 35913 ft | 411 kts | 235° |
| 2026-05-06 11:34 | 44.75915 | 52.97919 | 35914 ft | 411 kts | 235° |
| 2026-05-06 11:35 | 44.72853 | 52.91123 | 35917 ft | 411 kts | 235° |
| 2026-05-06 11:35 | 44.69805 | 52.84379 | 35914 ft | 411 kts | 235° |
| 2026-05-06 11:36 | 44.66736 | 52.77597 | 35918 ft | 411 kts | 235° |
| 2026-05-06 11:36 | 44.63673 | 52.70811 | 35914 ft | 411 kts | 235° |
| 2026-05-06 11:37 | 44.60603 | 52.64046 | 35917 ft | 411 kts | 234° |
| 2026-05-06 11:37 | 44.57517 | 52.57284 | 35920 ft | 411 kts | 234° |
| 2026-05-06 11:38 | 44.54438 | 52.50536 | 35917 ft | 411 kts | 234° |
| 2026-05-06 11:38 | 44.51353 | 52.43784 | 35918 ft | 411 kts | 234° |
| 2026-05-06 11:39 | 44.48261 | 52.37042 | 35916 ft | 411 kts | 234° |
| 2026-05-06 11:39 | 44.45159 | 52.30308 | 35921 ft | 412 kts | 234° |
| 2026-05-06 11:40 | 44.42057 | 52.23581 | 35920 ft | 412 kts | 234° |
| 2026-05-06 11:40 | 44.38966 | 52.16894 | 35920 ft | 412 kts | 234° |
| 2026-05-06 11:41 | 44.35857 | 52.10166 | 35921 ft | 412 kts | 234° |
| 2026-05-06 11:41 | 44.32754 | 52.03431 | 35924 ft | 413 kts | 234° |
| 2026-05-06 11:42 | 44.29642 | 51.96691 | 35924 ft | 413 kts | 234° |
| 2026-05-06 11:42 | 44.27049 | 51.91090 | 35926 ft | 413 kts | 234° |
| 2026-05-06 11:43 | 44.23928 | 51.84365 | 35933 ft | 413 kts | 234° |
| 2026-05-06 11:43 | 44.20284 | 51.76545 | 35935 ft | 414 kts | 234° |
| 2026-05-06 11:44 | 44.16089 | 51.67554 | 35933 ft | 414 kts | 234° |
| 2026-05-06 11:44 | 44.12944 | 51.60823 | 35937 ft | 415 kts | 234° |
| 2026-05-06 11:45 | 44.09786 | 51.54094 | 35941 ft | 415 kts | 234° |
| 2026-05-06 11:45 | 44.06629 | 51.47370 | 35943 ft | 415 kts | 234° |
| 2026-05-06 11:46 | 44.03486 | 51.40691 | 35954 ft | 415 kts | 234° |
| 2026-05-06 11:46 | 44.00312 | 51.33981 | 35964 ft | 416 kts | 234° |
| 2026-05-06 11:47 | 43.97132 | 51.27278 | 35976 ft | 416 kts | 234° |
| 2026-05-06 11:47 | 43.93945 | 51.20569 | 35985 ft | 416 kts | 234° |
| 2026-05-06 11:48 | 43.90753 | 51.13855 | 35991 ft | 417 kts | 234° |
| 2026-05-06 11:48 | 43.87551 | 51.07149 | 35993 ft | 416 kts | 232° |
| 2026-05-06 11:49 | 43.83859 | 51.01009 | 35995 ft | 415 kts | 227° |
| 2026-05-06 11:49 | 43.80120 | 50.94930 | 35992 ft | 414 kts | 227° |
| 2026-05-06 11:50 | 43.76378 | 50.88854 | 35990 ft | 414 kts | 227° |
| 2026-05-06 11:50 | 43.72631 | 50.82805 | 35982 ft | 414 kts | 227° |
| 2026-05-06 11:51 | 43.68879 | 50.76762 | 35975 ft | 414 kts | 227° |
| 2026-05-06 11:51 | 43.65142 | 50.70772 | 35969 ft | 414 kts | 227° |
| 2026-05-06 11:52 | 43.61382 | 50.64737 | 35974 ft | 415 kts | 227° |
| 2026-05-06 11:52 | 43.57622 | 50.58707 | 35972 ft | 415 kts | 227° |
| 2026-05-06 11:53 | 43.53823 | 50.52639 | 35975 ft | 415 kts | 227° |
| 2026-05-06 11:53 | 43.50069 | 50.46660 | 35978 ft | 415 kts | 227° |
| 2026-05-06 11:54 | 43.46263 | 50.40609 | 35984 ft | 415 kts | 227° |
| 2026-05-06 11:54 | 43.42503 | 50.34651 | 35989 ft | 415 kts | 227° |
| 2026-05-06 11:55 | 43.38721 | 50.28658 | 35983 ft | 415 kts | 227° |
| 2026-05-06 11:55 | 43.34937 | 50.22677 | 35989 ft | 415 kts | 227° |
| 2026-05-06 11:56 | 43.31147 | 50.16696 | 35987 ft | 415 kts | 227° |
| 2026-05-06 11:56 | 43.27359 | 50.10724 | 35997 ft | 415 kts | 227° |
| 2026-05-06 11:57 | 43.23563 | 50.04763 | 35997 ft | 415 kts | 227° |
| 2026-05-06 11:57 | 43.19768 | 49.98817 | 35985 ft | 414 kts | 227° |
| 2026-05-06 11:58 | 43.15973 | 49.92876 | 35990 ft | 414 kts | 227° |
| 2026-05-06 11:58 | 43.12178 | 49.86957 | 35991 ft | 414 kts | 227° |
| 2026-05-06 11:59 | 43.08377 | 49.81042 | 35997 ft | 414 kts | 227° |
| 2026-05-06 11:59 | 43.04578 | 49.75133 | 35999 ft | 414 kts | 227° |
| 2026-05-06 12:00 | 43.00776 | 49.69226 | 35998 ft | 414 kts | 227° |
| 2026-05-06 12:00 | 42.96968 | 49.63321 | 36001 ft | 414 kts | 227° |
| 2026-05-06 12:01 | 42.93148 | 49.57434 | 36003 ft | 414 kts | 227° |
| 2026-05-06 12:01 | 42.89326 | 49.51549 | 36005 ft | 414 kts | 227° |
| 2026-05-06 12:02 | 42.85526 | 49.45643 | 36003 ft | 414 kts | 227° |
| 2026-05-06 12:02 | 42.81791 | 49.39719 | 36004 ft | 415 kts | 228° |
| 2026-05-06 12:03 | 42.78035 | 49.33754 | 36009 ft | 415 kts | 228° |
| 2026-05-06 12:03 | 42.74264 | 49.27799 | 36008 ft | 415 kts | 228° |
| 2026-05-06 12:04 | 42.70481 | 49.21860 | 36010 ft | 416 kts | 228° |
| 2026-05-06 12:04 | 42.66688 | 49.15922 | 36014 ft | 416 kts | 228° |
| 2026-05-06 12:05 | 42.62884 | 49.09977 | 36019 ft | 417 kts | 228° |
| 2026-05-06 12:05 | 42.59079 | 49.04032 | 36024 ft | 417 kts | 228° |
| 2026-05-06 12:06 | 42.55260 | 48.98087 | 36028 ft | 418 kts | 228° |
| 2026-05-06 12:06 | 42.51440 | 48.92164 | 36025 ft | 417 kts | 228° |
| 2026-05-06 12:07 | 42.47628 | 48.86242 | 36028 ft | 417 kts | 228° |
| 2026-05-06 12:07 | 42.43815 | 48.80321 | 36029 ft | 417 kts | 228° |
| 2026-05-06 12:08 | 42.40016 | 48.74452 | 36027 ft | 417 kts | 228° |
| 2026-05-06 12:08 | 42.36193 | 48.68560 | 36030 ft | 417 kts | 228° |
| 2026-05-06 12:09 | 42.32367 | 48.62682 | 36034 ft | 416 kts | 228° |
| 2026-05-06 12:09 | 42.28551 | 48.56816 | 36034 ft | 416 kts | 228° |
| 2026-05-06 12:10 | 42.24733 | 48.50960 | 36040 ft | 416 kts | 229° |
| 2026-05-06 12:10 | 42.20928 | 48.45082 | 36045 ft | 416 kts | 229° |
| 2026-05-06 12:11 | 42.17127 | 48.39203 | 36049 ft | 416 kts | 229° |
| 2026-05-06 12:11 | 42.13318 | 48.33346 | 36047 ft | 415 kts | 229° |
| 2026-05-06 12:12 | 42.09276 | 48.27804 | 36049 ft | 416 kts | 217° |
| 2026-05-06 12:12 | 42.04356 | 48.23713 | 36053 ft | 416 kts | 212° |
| 2026-05-06 12:13 | 41.99377 | 48.19746 | 36057 ft | 415 kts | 212° |
| 2026-05-06 12:13 | 41.94416 | 48.15772 | 36052 ft | 415 kts | 212° |
| 2026-05-06 12:14 | 41.89461 | 48.11817 | 36053 ft | 415 kts | 212° |
| 2026-05-06 12:14 | 41.84499 | 48.07874 | 36049 ft | 414 kts | 212° |
| 2026-05-06 12:15 | 41.79534 | 48.03934 | 36053 ft | 415 kts | 212° |
| 2026-05-06 12:15 | 41.74570 | 48.00004 | 36050 ft | 414 kts | 212° |
| 2026-05-06 12:16 | 41.69608 | 47.96072 | 36048 ft | 414 kts | 213° |
| 2026-05-06 12:16 | 41.64644 | 47.92153 | 36047 ft | 414 kts | 212° |
| 2026-05-06 12:17 | 41.59680 | 47.88249 | 36044 ft | 414 kts | 212° |
| 2026-05-06 12:17 | 41.54714 | 47.84348 | 36043 ft | 414 kts | 213° |
| 2026-05-06 12:18 | 41.49760 | 47.80447 | 36036 ft | 413 kts | 213° |
| 2026-05-06 12:18 | 41.44802 | 47.76555 | 36043 ft | 413 kts | 213° |
| 2026-05-06 12:19 | 41.39852 | 47.72687 | 36050 ft | 413 kts | 213° |
| 2026-05-06 12:19 | 41.34899 | 47.68825 | 36056 ft | 413 kts | 213° |
| 2026-05-06 12:20 | 41.29974 | 47.64989 | 36062 ft | 412 kts | 213° |
| 2026-05-06 12:20 | 41.25039 | 47.61137 | 36067 ft | 411 kts | 216° |
| 2026-05-06 12:21 | 41.20907 | 47.56047 | 36070 ft | 405 kts | 235° |
| 2026-05-06 12:21 | 41.18100 | 47.49572 | 36076 ft | 405 kts | 241° |
| 2026-05-06 12:22 | 41.15394 | 47.43035 | 36085 ft | 404 kts | 240° |
| 2026-05-06 12:22 | 41.12678 | 47.36516 | 36092 ft | 403 kts | 240° |
| 2026-05-06 12:23 | 41.09969 | 47.30010 | 36100 ft | 403 kts | 240° |
| 2026-05-06 12:23 | 41.07252 | 47.23508 | 36114 ft | 403 kts | 240° |
| 2026-05-06 12:24 | 41.04541 | 47.17018 | 36096 ft | 402 kts | 240° |
| 2026-05-06 12:24 | 41.01828 | 47.10538 | 36094 ft | 402 kts | 240° |
| 2026-05-06 12:25 | 40.99118 | 47.04076 | 36092 ft | 402 kts | 240° |
| 2026-05-06 12:25 | 40.96407 | 46.97612 | 36083 ft | 401 kts | 240° |
| 2026-05-06 12:26 | 40.93719 | 46.91198 | 36081 ft | 401 kts | 240° |
| 2026-05-06 12:26 | 40.91026 | 46.84750 | 36069 ft | 401 kts | 244° |
| 2026-05-06 12:27 | 40.89480 | 46.77686 | 36068 ft | 404 kts | 260° |
| 2026-05-06 12:27 | 40.88804 | 46.70304 | 36064 ft | 405 kts | 260° |
| 2026-05-06 12:28 | 40.88227 | 46.64112 | 36055 ft | 405 kts | 260° |
| 2026-05-06 12:28 | 40.87410 | 46.55524 | 36047 ft | 406 kts | 260° |
| 2026-05-06 12:29 | 40.86695 | 46.48135 | 36043 ft | 406 kts | 259° |
| 2026-05-06 12:29 | 40.85976 | 46.40743 | 36039 ft | 406 kts | 259° |
| 2026-05-06 12:30 | 40.85263 | 46.33347 | 36037 ft | 406 kts | 260° |
| 2026-05-06 12:30 | 40.84666 | 46.27195 | 36037 ft | 406 kts | 260° |
| 2026-05-06 12:31 | 40.83940 | 46.19798 | 36034 ft | 406 kts | 259° |
| 2026-05-06 12:31 | 40.83207 | 46.12390 | 36033 ft | 407 kts | 259° |
| 2026-05-06 12:32 | 40.82348 | 46.03780 | 36035 ft | 407 kts | 259° |
| 2026-05-06 12:32 | 40.81729 | 45.97573 | 36033 ft | 408 kts | 259° |
| 2026-05-06 12:33 | 40.81354 | 45.93856 | 35823 ft | 408 kts | 259° |
| 2026-05-06 12:33 | 40.80980 | 45.90149 | 35584 ft | 407 kts | 260° |
| 2026-05-06 12:33 | 40.80606 | 45.86446 | 35347 ft | 406 kts | 260° |
| 2026-05-06 12:33 | 40.80231 | 45.82752 | 35116 ft | 406 kts | 260° |
| 2026-05-06 12:34 | 40.79858 | 45.79064 | 34880 ft | 406 kts | 260° |
| 2026-05-06 12:34 | 40.79483 | 45.75381 | 34657 ft | 405 kts | 260° |
| 2026-05-06 12:34 | 40.79106 | 45.71702 | 34427 ft | 404 kts | 259° |
| 2026-05-06 12:34 | 40.78725 | 45.68029 | 34197 ft | 404 kts | 260° |
| 2026-05-06 12:35 | 40.78343 | 45.64364 | 33957 ft | 403 kts | 260° |
| 2026-05-06 12:35 | 40.77959 | 45.60700 | 33685 ft | 403 kts | 259° |
| 2026-05-06 12:35 | 40.77575 | 45.57035 | 33423 ft | 403 kts | 260° |
| 2026-05-06 12:35 | 40.77182 | 45.53379 | 33037 ft | 402 kts | 258° |
| 2026-05-06 12:36 | 40.76470 | 45.49823 | 32161 ft | 402 kts | 249° |
| 2026-05-06 12:36 | 40.75289 | 45.46473 | 31231 ft | 405 kts | 241° |
| 2026-05-06 12:36 | 40.73910 | 45.43288 | 30390 ft | 405 kts | 242° |
| 2026-05-06 12:36 | 40.72519 | 45.40042 | 29300 ft | 409 kts | 242° |
| 2026-05-06 12:37 | 40.71124 | 45.36769 | 28295 ft | 410 kts | 242° |
| 2026-05-06 12:37 | 40.69741 | 45.33518 | 27749 ft | 402 kts | 242° |
| 2026-05-06 12:37 | 40.68385 | 45.30328 | 27132 ft | 397 kts | 242° |
| 2026-05-06 12:37 | 40.67045 | 45.27180 | 26505 ft | 392 kts | 242° |
| 2026-05-06 12:38 | 40.65714 | 45.24055 | 25903 ft | 388 kts | 241° |
| 2026-05-06 12:38 | 40.64399 | 45.20977 | 25313 ft | 384 kts | 241° |
| 2026-05-06 12:38 | 40.63091 | 45.17922 | 24721 ft | 380 kts | 241° |
| 2026-05-06 12:38 | 40.61797 | 45.14908 | 24150 ft | 377 kts | 241° |
| 2026-05-06 12:39 | 40.60513 | 45.11920 | 23572 ft | 373 kts | 241° |
| 2026-05-06 12:39 | 40.59257 | 45.09000 | 23315 ft | 359 kts | 241° |
| 2026-05-06 12:39 | 40.58054 | 45.06208 | 23163 ft | 343 kts | 241° |
| 2026-05-06 12:39 | 40.56898 | 45.03531 | 22975 ft | 330 kts | 241° |
| 2026-05-06 12:40 | 40.55774 | 45.00932 | 22616 ft | 323 kts | 241° |
| 2026-05-06 12:40 | 40.54669 | 44.98378 | 22353 ft | 321 kts | 241° |
| 2026-05-06 12:40 | 40.53553 | 44.95849 | 22080 ft | 319 kts | 237° |
| 2026-05-06 12:40 | 40.52177 | 44.93563 | 21819 ft | 319 kts | 230° |
| 2026-05-06 12:41 | 40.50732 | 44.91361 | 21547 ft | 317 kts | 230° |
| 2026-05-06 12:41 | 40.49296 | 44.89164 | 21261 ft | 317 kts | 231° |
| 2026-05-06 12:41 | 40.47864 | 44.86973 | 20821 ft | 315 kts | 230° |
| 2026-05-06 12:41 | 40.46438 | 44.84791 | 20352 ft | 314 kts | 230° |
| 2026-05-06 12:42 | 40.45041 | 44.82653 | 19890 ft | 312 kts | 230° |
| 2026-05-06 12:42 | 40.43612 | 44.80468 | 19422 ft | 311 kts | 230° |
| 2026-05-06 12:42 | 40.42223 | 44.78350 | 18968 ft | 310 kts | 230° |
| 2026-05-06 12:42 | 40.40821 | 44.76213 | 18504 ft | 309 kts | 230° |
| 2026-05-06 12:43 | 40.39417 | 44.74071 | 18008 ft | 308 kts | 230° |
| 2026-05-06 12:43 | 40.38022 | 44.71947 | 17525 ft | 306 kts | 230° |
| 2026-05-06 12:43 | 40.36638 | 44.69842 | 17064 ft | 304 kts | 230° |
| 2026-05-06 12:43 | 40.35261 | 44.67749 | 16615 ft | 302 kts | 230° |
| 2026-05-06 12:44 | 40.33917 | 44.65640 | 16161 ft | 301 kts | 231° |
| 2026-05-06 12:44 | 40.32619 | 44.63501 | 15712 ft | 300 kts | 232° |
| 2026-05-06 12:44 | 40.31341 | 44.61355 | 15325 ft | 296 kts | 232° |
| 2026-05-06 12:44 | 40.30084 | 44.59237 | 14898 ft | 293 kts | 232° |
| 2026-05-06 12:45 | 40.28836 | 44.57142 | 14299 ft | 291 kts | 232° |
| 2026-05-06 12:45 | 40.27591 | 44.55063 | 13723 ft | 290 kts | 232° |
| 2026-05-06 12:45 | 40.25110 | 44.50953 | 12478 ft | 286 kts | 232° |
| 2026-05-06 12:46 | 40.23879 | 44.48922 | 11868 ft | 284 kts | 232° |
| 2026-05-06 12:46 | 40.22651 | 44.46897 | 11259 ft | 282 kts | 232° |
| 2026-05-06 12:46 | 40.21434 | 44.44891 | 10677 ft | 281 kts | 232° |
| 2026-05-06 12:46 | 40.20222 | 44.42893 | 10110 ft | 279 kts | 232° |
| 2026-05-06 12:47 | 40.19036 | 44.40938 | 9503 ft | 277 kts | 232° |
| 2026-05-06 12:47 | 40.17838 | 44.38963 | 8950 ft | 278 kts | 232° |
| 2026-05-06 12:47 | 40.16642 | 44.36996 | 8569 ft | 275 kts | 232° |
| 2026-05-06 12:47 | 40.15453 | 44.35044 | 8163 ft | 274 kts | 232° |
| 2026-05-06 12:48 | 40.14345 | 44.33026 | 7760 ft | 272 kts | 240° |
| 2026-05-06 12:48 | 40.13397 | 44.30888 | 7359 ft | 272 kts | 240° |
| 2026-05-06 12:48 | 40.12449 | 44.28757 | 6969 ft | 271 kts | 240° |
| 2026-05-06 12:48 | 40.11498 | 44.26626 | 6586 ft | 271 kts | 240° |
| 2026-05-06 12:49 | 40.10551 | 44.24504 | 6181 ft | 271 kts | 240° |
| 2026-05-06 12:49 | 40.09602 | 44.22385 | 5876 ft | 266 kts | 240° |
| 2026-05-06 12:49 | 40.08690 | 44.20350 | 5746 ft | 254 kts | 240° |
| 2026-05-06 12:49 | 40.07828 | 44.18418 | 5566 ft | 240 kts | 240° |
| 2026-05-06 12:50 | 40.06998 | 44.16557 | 5237 ft | 235 kts | 240° |
| 2026-05-06 12:50 | 40.06306 | 44.14687 | 5037 ft | 223 kts | 254° |
| 2026-05-06 12:50 | 40.06149 | 44.12715 | 5015 ft | 218 kts | 275° |
| 2026-05-06 12:50 | 40.06522 | 44.10845 | 5030 ft | 206 kts | 295° |
| 2026-05-06 12:51 | 40.07277 | 44.09368 | 5026 ft | 188 kts | 313° |
| 2026-05-06 12:51 | 40.08246 | 44.08359 | 5021 ft | 176 kts | 330° |
| 2026-05-06 12:51 | 40.09396 | 44.07764 | 5027 ft | 176 kts | 346° |
| 2026-05-06 12:51 | 40.10610 | 44.07627 | 5020 ft | 175 kts | 3° |
| 2026-05-06 12:52 | 40.11803 | 44.07945 | 5027 ft | 176 kts | 20° |
| 2026-05-06 12:52 | 40.12879 | 44.08696 | 5019 ft | 176 kts | 36° |
| 2026-05-06 12:52 | 40.13740 | 44.09805 | 5008 ft | 177 kts | 53° |
| 2026-05-06 12:52 | 40.14329 | 44.11208 | 5007 ft | 176 kts | 72° |
| 2026-05-06 12:53 | 40.14492 | 44.12781 | 5014 ft | 174 kts | 87° |
| 2026-05-06 12:53 | 40.14540 | 44.14340 | 5007 ft | 170 kts | 89° |
| 2026-05-06 12:53 | 40.14563 | 44.15882 | 5018 ft | 165 kts | 89° |
| 2026-05-06 12:53 | 40.14579 | 44.17353 | 5009 ft | 159 kts | 90° |
| 2026-05-06 12:54 | 40.14591 | 44.18788 | 5008 ft | 157 kts | 90° |
| 2026-05-06 12:54 | 40.14602 | 44.20208 | 5003 ft | 156 kts | 90° |
| 2026-05-06 12:54 | 40.14612 | 44.21628 | 5006 ft | 156 kts | 90° |
| 2026-05-06 12:54 | 40.14622 | 44.23049 | 4925 ft | 156 kts | 90° |
| 2026-05-06 12:55 | 40.14632 | 44.24461 | 4767 ft | 155 kts | 90° |
| 2026-05-06 12:55 | 40.14642 | 44.25872 | 4577 ft | 155 kts | 90° |
| 2026-05-06 12:55 | 40.14651 | 44.27274 | 4370 ft | 155 kts | 90° |
| 2026-05-06 12:55 | 40.14661 | 44.28683 | 4162 ft | 156 kts | 90° |
| 2026-05-06 12:56 | 40.14670 | 44.30108 | 3937 ft | 158 kts | 89° |
| 2026-05-06 12:56 | 40.14689 | 44.31549 | 3704 ft | 158 kts | 89° |
| 2026-05-06 12:56 | 40.14706 | 44.32990 | 3487 ft | 159 kts | 91° |
| 2026-05-06 12:56 | 40.14694 | 44.34440 | 3329 ft | 158 kts | 91° |
| 2026-05-06 12:57 | 40.14713 | 44.35881 | 3143 ft | 158 kts | 89° |
| 2026-05-06 12:57 | 40.14715 | 44.37317 | 2889 ft | 156 kts | 91° |
| 2026-05-06 12:57 | 40.14723 | 44.38681 | 2841 ft | 140 kts | 91° |
| 2026-05-06 12:57 | 40.14726 | 44.39406 | 2838 ft | 101 kts | 89° |
| 2026-05-06 12:58 | 40.14725 | 44.39637 | 2839 ft | 86 kts | 90° |
| 2026-05-06 12:58 | 40.14730 | 44.40194 | 2842 ft | 39 kts | 89° |
| 2026-05-06 12:58 | 40.14732 | 44.40451 | 2841 ft | 21 kts | 90° |
| 2026-05-06 12:59 | 40.14732 | 44.40639 | 2840 ft | 22 kts | 90° |
| 2026-05-06 12:59 | 40.14734 | 44.40811 | 2839 ft | 0 kts | 89° |
| 2026-05-06 12:59 | 40.14734 | 44.40813 | 2839 ft | 1 kts | 89° |
| 2026-05-06 13:00 | 40.14734 | 44.40866 | 2839 ft | 10 kts | 91° |
| 2026-05-06 13:00 | 40.14734 | 44.40998 | 2838 ft | 19 kts | 90° |
| 2026-05-06 13:00 | 40.14735 | 44.41158 | 2838 ft | 11 kts | 89° |
| 2026-05-06 13:00 | 40.14741 | 44.41247 | 2838 ft | 9 kts | 68° |
| 2026-05-06 13:01 | 40.14785 | 44.41274 | 2838 ft | 6 kts | 352° |
| 2026-05-06 13:01 | 40.14816 | 44.41255 | 2839 ft | 4 kts | 330° |
| 2026-05-06 13:01 | 40.14837 | 44.41239 | 2839 ft | 3 kts | 329° |
| 2026-05-06 13:01 | 40.14857 | 44.41223 | 2839 ft | 4 kts | 329° |
| 2026-05-06 13:02 | 40.14880 | 44.41206 | 2839 ft | 4 kts | 329° |
| 2026-05-06 13:02 | 40.14904 | 44.41186 | 2839 ft | 4 kts | 325° |
| 2026-05-06 13:02 | 40.14930 | 44.41163 | 2839 ft | 5 kts | 327° |
| 2026-05-06 13:02 | 40.14966 | 44.41132 | 2840 ft | 4 kts | 326° |
| 2026-05-06 13:03 | 40.14980 | 44.41117 | 2841 ft | 3 kts | 315° |
| 2026-05-06 13:03 | 40.14985 | 44.41062 | 2841 ft | 10 kts | 269° |
| 2026-05-06 13:03 | 40.14985 | 44.40953 | 2841 ft | 12 kts | 269° |
| 2026-05-06 13:03 | 40.14985 | 44.40847 | 2841 ft | 11 kts | 270° |
| 2026-05-06 13:04 | 40.14984 | 44.40746 | 2841 ft | 11 kts | 269° |
| 2026-05-06 13:04 | 40.14983 | 44.40653 | 2841 ft | 10 kts | 269° |
| 2026-05-06 13:04 | 40.14983 | 44.40567 | 2841 ft | 9 kts | 270° |
| 2026-05-06 13:04 | 40.14983 | 44.40487 | 2841 ft | 8 kts | 268° |
| 2026-05-06 13:05 | 40.14981 | 44.40414 | 2841 ft | 8 kts | 269° |
| 2026-05-06 13:05 | 40.14981 | 44.40342 | 2841 ft | 10 kts | 270° |
| 2026-05-06 13:05 | 40.14981 | 44.40253 | 2841 ft | 9 kts | 270° |
| 2026-05-06 13:05 | 40.14980 | 44.40171 | 2841 ft | 9 kts | 269° |
| 2026-05-06 13:06 | 40.14979 | 44.40094 | 2841 ft | 8 kts | 270° |
| 2026-05-06 13:06 | 40.14979 | 44.40029 | 2841 ft | 6 kts | 271° |
| 2026-05-06 13:06 | 40.14997 | 44.40012 | 2840 ft | 3 kts | 347° |
| 2026-05-06 13:06 | 40.15022 | 44.40011 | 2841 ft | 6 kts | 1° |
| 2026-05-06 13:07 | 40.15066 | 44.40013 | 2841 ft | 4 kts | 2° |
| 2026-05-06 13:07 | 40.15080 | 44.40013 | 2841 ft | 1 kts | 0° |
| 2026-05-06 13:07 | 40.15084 | 44.40013 | 2841 ft | 0 kts | 360° |